sensor_id;sensor_type;location;lat;lon;timestamp;P1;durP1;ratioP1;P2;durP2;ratioP2
15153;SDS011;7677;41.896;25.004;2023-10-31T00:00:54;10.50;;;3.90;;
15153;SDS011;7677;41.896;25.004;2023-10-31T00:03:21;5.53;;;3.40;;
15153;SDS011;7677;41.896;25.004;2023-10-31T00:05:49;4.33;;;3.47;;
15153;SDS011;7677;41.896;25.004;2023-10-31T00:08:17;10.30;;;3.90;;
15153;SDS011;7677;41.896;25.004;2023-10-31T00:10:44;6.23;;;3.60;;
15153;SDS011;7677;41.896;25.004;2023-10-31T00:13:11;7.07;;;3.77;;
15153;SDS011;7677;41.896;25.004;2023-10-31T00:15:38;6.43;;;4.20;;
15153;SDS011;7677;41.896;25.004;2023-10-31T00:18:05;8.27;;;4.67;;
15153;SDS011;7677;41.896;25.004;2023-10-31T00:20:32;6.13;;;4.17;;
15153;SDS011;7677;41.896;25.004;2023-10-31T00:23:00;10.27;;;3.60;;
15153;SDS011;7677;41.896;25.004;2023-10-31T00:25:28;9.80;;;4.17;;
15153;SDS011;7677;41.896;25.004;2023-10-31T00:27:55;6.67;;;3.40;;
15153;SDS011;7677;41.896;25.004;2023-10-31T00:30:22;4.17;;;3.33;;
15153;SDS011;7677;41.896;25.004;2023-10-31T00:32:49;5.73;;;3.50;;
15153;SDS011;7677;41.896;25.004;2023-10-31T00:35:16;10.00;;;3.90;;
15153;SDS011;7677;41.896;25.004;2023-10-31T00:37:43;7.90;;;3.77;;
15153;SDS011;7677;41.896;25.004;2023-10-31T00:40:10;4.80;;;3.73;;
15153;SDS011;7677;41.896;25.004;2023-10-31T00:42:40;6.47;;;3.87;;
15153;SDS011;7677;41.896;25.004;2023-10-31T00:45:07;5.33;;;3.57;;
15153;SDS011;7677;41.896;25.004;2023-10-31T00:47:35;6.60;;;3.10;;
15153;SDS011;7677;41.896;25.004;2023-10-31T00:50:02;6.97;;;3.83;;
15153;SDS011;7677;41.896;25.004;2023-10-31T00:52:29;4.10;;;3.20;;
15153;SDS011;7677;41.896;25.004;2023-10-31T00:54:56;5.97;;;3.50;;
15153;SDS011;7677;41.896;25.004;2023-10-31T00:57:23;10.73;;;3.93;;
15153;SDS011;7677;41.896;25.004;2023-10-31T00:59:52;5.63;;;3.33;;
15153;SDS011;7677;41.896;25.004;2023-10-31T01:02:19;5.90;;;3.40;;
15153;SDS011;7677;41.896;25.004;2023-10-31T01:04:46;8.27;;;4.03;;
15153;SDS011;7677;41.896;25.004;2023-10-31T01:07:13;6.10;;;3.83;;
15153;SDS011;7677;41.896;25.004;2023-10-31T01:09:42;5.00;;;3.47;;
15153;SDS011;7677;41.896;25.004;2023-10-31T01:12:09;7.13;;;3.50;;
15153;SDS011;7677;41.896;25.004;2023-10-31T01:14:36;6.67;;;4.20;;
15153;SDS011;7677;41.896;25.004;2023-10-31T01:17:05;7.03;;;3.60;;
15153;SDS011;7677;41.896;25.004;2023-10-31T01:19:32;10.03;;;3.63;;
15153;SDS011;7677;41.896;25.004;2023-10-31T01:21:59;6.53;;;3.47;;
15153;SDS011;7677;41.896;25.004;2023-10-31T01:24:26;4.20;;;2.87;;
15153;SDS011;7677;41.896;25.004;2023-10-31T01:26:53;5.60;;;3.57;;
15153;SDS011;7677;41.896;25.004;2023-10-31T01:29:20;7.33;;;3.63;;
15153;SDS011;7677;41.896;25.004;2023-10-31T01:31:47;5.87;;;3.63;;
15153;SDS011;7677;41.896;25.004;2023-10-31T01:34:15;8.03;;;4.20;;
15153;SDS011;7677;41.896;25.004;2023-10-31T01:36:42;7.53;;;3.90;;
15153;SDS011;7677;41.896;25.004;2023-10-31T01:39:09;6.37;;;3.60;;
15153;SDS011;7677;41.896;25.004;2023-10-31T01:41:36;3.83;;;3.47;;
15153;SDS011;7677;41.896;25.004;2023-10-31T01:44:03;3.40;;;3.03;;
15153;SDS011;7677;41.896;25.004;2023-10-31T01:46:30;4.13;;;3.20;;
15153;SDS011;7677;41.896;25.004;2023-10-31T01:48:57;9.10;;;3.57;;
15153;SDS011;7677;41.896;25.004;2023-10-31T01:51:26;6.17;;;3.60;;
15153;SDS011;7677;41.896;25.004;2023-10-31T01:53:53;6.97;;;3.43;;
15153;SDS011;7677;41.896;25.004;2023-10-31T01:56:20;7.90;;;3.67;;
15153;SDS011;7677;41.896;25.004;2023-10-31T01:58:48;7.67;;;4.37;;
15153;SDS011;7677;41.896;25.004;2023-10-31T02:01:16;6.30;;;4.10;;
15153;SDS011;7677;41.896;25.004;2023-10-31T02:03:43;5.97;;;3.17;;
15153;SDS011;7677;41.896;25.004;2023-10-31T02:06:09;6.37;;;3.13;;
15153;SDS011;7677;41.896;25.004;2023-10-31T02:08:37;5.60;;;3.73;;
15153;SDS011;7677;41.896;25.004;2023-10-31T02:11:04;5.47;;;3.30;;
15153;SDS011;7677;41.896;25.004;2023-10-31T02:13:35;7.23;;;3.80;;
15153;SDS011;7677;41.896;25.004;2023-10-31T02:16:02;5.47;;;3.50;;
15153;SDS011;7677;41.896;25.004;2023-10-31T02:18:30;6.70;;;3.70;;
15153;SDS011;7677;41.896;25.004;2023-10-31T02:20:57;8.67;;;3.40;;
15153;SDS011;7677;41.896;25.004;2023-10-31T02:23:25;5.63;;;3.33;;
15153;SDS011;7677;41.896;25.004;2023-10-31T02:25:52;5.50;;;3.33;;
15153;SDS011;7677;41.896;25.004;2023-10-31T02:28:19;3.83;;;3.33;;
15153;SDS011;7677;41.896;25.004;2023-10-31T02:30:46;12.67;;;3.03;;
15153;SDS011;7677;41.896;25.004;2023-10-31T02:33:13;4.80;;;3.70;;
15153;SDS011;7677;41.896;25.004;2023-10-31T02:35:40;3.70;;;2.90;;
15153;SDS011;7677;41.896;25.004;2023-10-31T02:38:07;3.90;;;3.10;;
15153;SDS011;7677;41.896;25.004;2023-10-31T02:40:35;4.03;;;3.13;;
15153;SDS011;7677;41.896;25.004;2023-10-31T02:43:02;8.43;;;3.50;;
15153;SDS011;7677;41.896;25.004;2023-10-31T02:45:29;4.07;;;2.87;;
15153;SDS011;7677;41.896;25.004;2023-10-31T02:47:56;5.73;;;3.37;;
15153;SDS011;7677;41.896;25.004;2023-10-31T02:50:23;4.87;;;3.20;;
15153;SDS011;7677;41.896;25.004;2023-10-31T02:52:50;4.63;;;3.33;;
15153;SDS011;7677;41.896;25.004;2023-10-31T02:55:17;4.63;;;3.53;;
15153;SDS011;7677;41.896;25.004;2023-10-31T02:57:45;3.60;;;3.20;;
15153;SDS011;7677;41.896;25.004;2023-10-31T03:00:13;4.00;;;3.20;;
15153;SDS011;7677;41.896;25.004;2023-10-31T03:02:40;6.60;;;3.60;;
15153;SDS011;7677;41.896;25.004;2023-10-31T03:05:07;6.47;;;3.43;;
15153;SDS011;7677;41.896;25.004;2023-10-31T03:07:34;5.50;;;3.33;;
15153;SDS011;7677;41.896;25.004;2023-10-31T03:10:02;4.57;;;3.27;;
15153;SDS011;7677;41.896;25.004;2023-10-31T03:12:29;4.70;;;2.87;;
15153;SDS011;7677;41.896;25.004;2023-10-31T03:14:57;5.40;;;3.63;;
15153;SDS011;7677;41.896;25.004;2023-10-31T03:17:24;4.67;;;2.90;;
15153;SDS011;7677;41.896;25.004;2023-10-31T03:19:53;5.37;;;3.30;;
15153;SDS011;7677;41.896;25.004;2023-10-31T03:22:20;6.03;;;3.00;;
15153;SDS011;7677;41.896;25.004;2023-10-31T03:24:47;4.80;;;3.00;;
15153;SDS011;7677;41.896;25.004;2023-10-31T03:27:14;7.20;;;3.77;;
15153;SDS011;7677;41.896;25.004;2023-10-31T03:29:41;5.97;;;3.17;;
15153;SDS011;7677;41.896;25.004;2023-10-31T03:32:09;4.33;;;3.07;;
15153;SDS011;7677;41.896;25.004;2023-10-31T03:34:36;7.50;;;3.33;;
15153;SDS011;7677;41.896;25.004;2023-10-31T03:37:03;5.53;;;3.47;;
15153;SDS011;7677;41.896;25.004;2023-10-31T03:39:31;5.20;;;3.67;;
15153;SDS011;7677;41.896;25.004;2023-10-31T03:41:58;4.67;;;3.33;;
15153;SDS011;7677;41.896;25.004;2023-10-31T03:44:25;5.23;;;3.40;;
15153;SDS011;7677;41.896;25.004;2023-10-31T03:46:52;8.53;;;3.83;;
15153;SDS011;7677;41.896;25.004;2023-10-31T03:49:20;3.77;;;2.97;;
15153;SDS011;7677;41.896;25.004;2023-10-31T03:51:47;4.97;;;3.10;;
15153;SDS011;7677;41.896;25.004;2023-10-31T03:54:14;5.13;;;3.33;;
15153;SDS011;7677;41.896;25.004;2023-10-31T03:56:42;4.37;;;2.90;;
15153;SDS011;7677;41.896;25.004;2023-10-31T03:59:09;6.43;;;3.33;;
15153;SDS011;7677;41.896;25.004;2023-10-31T04:01:36;5.47;;;3.47;;
15153;SDS011;7677;41.896;25.004;2023-10-31T04:04:03;5.53;;;3.03;;
15153;SDS011;7677;41.896;25.004;2023-10-31T04:06:32;4.50;;;3.10;;
15153;SDS011;7677;41.896;25.004;2023-10-31T04:08:59;3.83;;;3.47;;
15153;SDS011;7677;41.896;25.004;2023-10-31T04:11:26;3.73;;;3.10;;
15153;SDS011;7677;41.896;25.004;2023-10-31T04:13:52;7.43;;;3.77;;
15153;SDS011;7677;41.896;25.004;2023-10-31T04:16:19;5.00;;;3.23;;
15153;SDS011;7677;41.896;25.004;2023-10-31T04:18:46;6.40;;;2.60;;
15153;SDS011;7677;41.896;25.004;2023-10-31T04:21:13;3.70;;;2.50;;
15153;SDS011;7677;41.896;25.004;2023-10-31T04:23:42;5.70;;;3.07;;
15153;SDS011;7677;41.896;25.004;2023-10-31T04:26:09;5.77;;;3.30;;
15153;SDS011;7677;41.896;25.004;2023-10-31T04:28:36;6.07;;;3.33;;
15153;SDS011;7677;41.896;25.004;2023-10-31T04:31:03;3.67;;;3.07;;
15153;SDS011;7677;41.896;25.004;2023-10-31T04:33:30;3.90;;;3.27;;
15153;SDS011;7677;41.896;25.004;2023-10-31T04:35:57;5.63;;;3.47;;
15153;SDS011;7677;41.896;25.004;2023-10-31T04:38:26;5.13;;;3.40;;
15153;SDS011;7677;41.896;25.004;2023-10-31T04:40:54;4.73;;;3.30;;
15153;SDS011;7677;41.896;25.004;2023-10-31T04:43:21;5.60;;;2.80;;
15153;SDS011;7677;41.896;25.004;2023-10-31T04:45:48;4.23;;;2.90;;
15153;SDS011;7677;41.896;25.004;2023-10-31T04:48:15;3.37;;;2.70;;
15153;SDS011;7677;41.896;25.004;2023-10-31T04:50:42;3.83;;;3.03;;
15153;SDS011;7677;41.896;25.004;2023-10-31T04:53:09;4.23;;;3.47;;
15153;SDS011;7677;41.896;25.004;2023-10-31T04:55:36;8.60;;;3.27;;
15153;SDS011;7677;41.896;25.004;2023-10-31T04:58:04;4.67;;;3.20;;
15153;SDS011;7677;41.896;25.004;2023-10-31T05:00:31;3.10;;;2.43;;
15153;SDS011;7677;41.896;25.004;2023-10-31T05:02:58;5.00;;;3.37;;
15153;SDS011;7677;41.896;25.004;2023-10-31T05:05:27;6.73;;;3.70;;
15153;SDS011;7677;41.896;25.004;2023-10-31T05:07:54;3.77;;;3.37;;
15153;SDS011;7677;41.896;25.004;2023-10-31T05:10:21;5.57;;;3.97;;
15153;SDS011;7677;41.896;25.004;2023-10-31T05:12:48;4.10;;;3.17;;
15153;SDS011;7677;41.896;25.004;2023-10-31T05:15:17;4.17;;;2.83;;
15153;SDS011;7677;41.896;25.004;2023-10-31T05:17:44;3.57;;;3.20;;
15153;SDS011;7677;41.896;25.004;2023-10-31T05:20:11;6.50;;;3.43;;
15153;SDS011;7677;41.896;25.004;2023-10-31T05:22:38;4.57;;;3.67;;
15153;SDS011;7677;41.896;25.004;2023-10-31T05:25:07;6.20;;;3.60;;
15153;SDS011;7677;41.896;25.004;2023-10-31T05:27:34;5.03;;;3.10;;
15153;SDS011;7677;41.896;25.004;2023-10-31T05:30:01;4.93;;;3.20;;
15153;SDS011;7677;41.896;25.004;2023-10-31T05:32:30;4.47;;;3.43;;
15153;SDS011;7677;41.896;25.004;2023-10-31T05:34:57;4.47;;;3.80;;
15153;SDS011;7677;41.896;25.004;2023-10-31T05:37:24;5.07;;;3.10;;
15153;SDS011;7677;41.896;25.004;2023-10-31T05:39:51;3.90;;;3.40;;
15153;SDS011;7677;41.896;25.004;2023-10-31T05:42:18;5.90;;;3.57;;
15153;SDS011;7677;41.896;25.004;2023-10-31T05:44:46;4.97;;;3.50;;
15153;SDS011;7677;41.896;25.004;2023-10-31T05:47:13;5.07;;;3.70;;
15153;SDS011;7677;41.896;25.004;2023-10-31T05:49:43;3.73;;;3.17;;
15153;SDS011;7677;41.896;25.004;2023-10-31T05:52:10;6.87;;;3.60;;
15153;SDS011;7677;41.896;25.004;2023-10-31T05:54:37;3.93;;;3.27;;
15153;SDS011;7677;41.896;25.004;2023-10-31T05:57:04;5.10;;;3.40;;
15153;SDS011;7677;41.896;25.004;2023-10-31T05:59:31;5.07;;;3.57;;
15153;SDS011;7677;41.896;25.004;2023-10-31T06:01:58;5.60;;;3.00;;
15153;SDS011;7677;41.896;25.004;2023-10-31T06:04:25;4.87;;;3.30;;
15153;SDS011;7677;41.896;25.004;2023-10-31T06:06:54;4.83;;;3.47;;
15153;SDS011;7677;41.896;25.004;2023-10-31T06:09:21;6.80;;;3.83;;
15153;SDS011;7677;41.896;25.004;2023-10-31T06:11:48;5.93;;;3.60;;
15153;SDS011;7677;41.896;25.004;2023-10-31T06:14:15;8.80;;;4.03;;
15153;SDS011;7677;41.896;25.004;2023-10-31T06:16:42;9.47;;;5.60;;
15153;SDS011;7677;41.896;25.004;2023-10-31T06:19:09;12.13;;;9.00;;
15153;SDS011;7677;41.896;25.004;2023-10-31T06:21:36;13.60;;;8.97;;
15153;SDS011;7677;41.896;25.004;2023-10-31T06:24:05;16.53;;;14.87;;
15153;SDS011;7677;41.896;25.004;2023-10-31T06:26:33;26.00;;;23.13;;
15153;SDS011;7677;41.896;25.004;2023-10-31T06:29:00;13.17;;;11.90;;
15153;SDS011;7677;41.896;25.004;2023-10-31T06:31:27;10.07;;;6.23;;
15153;SDS011;7677;41.896;25.004;2023-10-31T06:33:54;8.17;;;6.00;;
15153;SDS011;7677;41.896;25.004;2023-10-31T06:36:21;5.97;;;4.37;;
15153;SDS011;7677;41.896;25.004;2023-10-31T06:38:48;6.03;;;4.27;;
15153;SDS011;7677;41.896;25.004;2023-10-31T06:41:16;7.40;;;4.37;;
15153;SDS011;7677;41.896;25.004;2023-10-31T06:43:43;5.70;;;4.37;;
15153;SDS011;7677;41.896;25.004;2023-10-31T06:46:10;4.87;;;3.73;;
15153;SDS011;7677;41.896;25.004;2023-10-31T06:48:39;4.77;;;3.53;;
15153;SDS011;7677;41.896;25.004;2023-10-31T06:51:06;3.60;;;3.27;;
15153;SDS011;7677;41.896;25.004;2023-10-31T06:53:33;3.80;;;3.30;;
15153;SDS011;7677;41.896;25.004;2023-10-31T06:56:00;4.27;;;3.03;;
15153;SDS011;7677;41.896;25.004;2023-10-31T06:58:29;5.47;;;3.57;;
15153;SDS011;7677;41.896;25.004;2023-10-31T07:00:56;5.23;;;4.50;;
15153;SDS011;7677;41.896;25.004;2023-10-31T07:03:23;7.13;;;4.23;;
15153;SDS011;7677;41.896;25.004;2023-10-31T07:05:50;6.50;;;4.83;;
15153;SDS011;7677;41.896;25.004;2023-10-31T07:08:17;7.07;;;4.33;;
15153;SDS011;7677;41.896;25.004;2023-10-31T07:10:44;8.33;;;4.20;;
15153;SDS011;7677;41.896;25.004;2023-10-31T07:13:12;6.40;;;3.80;;
15153;SDS011;7677;41.896;25.004;2023-10-31T07:15:40;5.00;;;4.33;;
15153;SDS011;7677;41.896;25.004;2023-10-31T07:18:07;5.53;;;4.27;;
15153;SDS011;7677;41.896;25.004;2023-10-31T07:20:34;6.37;;;4.20;;
15153;SDS011;7677;41.896;25.004;2023-10-31T07:23:01;9.67;;;4.70;;
15153;SDS011;7677;41.896;25.004;2023-10-31T07:25:28;5.97;;;4.17;;
15153;SDS011;7677;41.896;25.004;2023-10-31T07:27:55;7.90;;;4.33;;
15153;SDS011;7677;41.896;25.004;2023-10-31T07:30:22;9.07;;;4.60;;
15153;SDS011;7677;41.896;25.004;2023-10-31T07:32:50;7.93;;;4.90;;
15153;SDS011;7677;41.896;25.004;2023-10-31T07:35:18;5.13;;;4.37;;
15153;SDS011;7677;41.896;25.004;2023-10-31T07:37:45;8.37;;;4.43;;
15153;SDS011;7677;41.896;25.004;2023-10-31T07:40:12;6.90;;;4.67;;
15153;SDS011;7677;41.896;25.004;2023-10-31T07:42:39;7.57;;;4.20;;
15153;SDS011;7677;41.896;25.004;2023-10-31T07:45:07;9.17;;;4.37;;
15153;SDS011;7677;41.896;25.004;2023-10-31T07:47:35;8.03;;;5.67;;
15153;SDS011;7677;41.896;25.004;2023-10-31T07:50:04;8.30;;;5.10;;
15153;SDS011;7677;41.896;25.004;2023-10-31T07:52:31;6.07;;;4.90;;
15153;SDS011;7677;41.896;25.004;2023-10-31T07:54:58;11.53;;;5.43;;
15153;SDS011;7677;41.896;25.004;2023-10-31T07:57:25;10.43;;;5.47;;
15153;SDS011;7677;41.896;25.004;2023-10-31T07:59:52;8.73;;;5.20;;
15153;SDS011;7677;41.896;25.004;2023-10-31T08:02:19;9.50;;;5.03;;
15153;SDS011;7677;41.896;25.004;2023-10-31T08:04:46;6.67;;;4.60;;
15153;SDS011;7677;41.896;25.004;2023-10-31T08:07:14;5.63;;;4.50;;
15153;SDS011;7677;41.896;25.004;2023-10-31T08:09:41;9.30;;;5.20;;
15153;SDS011;7677;41.896;25.004;2023-10-31T08:12:08;7.10;;;4.37;;
15153;SDS011;7677;41.896;25.004;2023-10-31T08:14:35;9.43;;;4.93;;
15153;SDS011;7677;41.896;25.004;2023-10-31T08:17:03;8.87;;;5.30;;
15153;SDS011;7677;41.896;25.004;2023-10-31T08:19:30;8.03;;;4.57;;
15153;SDS011;7677;41.896;25.004;2023-10-31T08:21:57;8.43;;;4.83;;
15153;SDS011;7677;41.896;25.004;2023-10-31T08:24:25;7.33;;;4.97;;
15153;SDS011;7677;41.896;25.004;2023-10-31T08:26:52;5.80;;;4.67;;
15153;SDS011;7677;41.896;25.004;2023-10-31T08:29:19;7.23;;;4.90;;
15153;SDS011;7677;41.896;25.004;2023-10-31T08:31:46;8.60;;;5.10;;
15153;SDS011;7677;41.896;25.004;2023-10-31T08:34:13;7.30;;;5.03;;
15153;SDS011;7677;41.896;25.004;2023-10-31T08:36:40;8.77;;;6.07;;
15153;SDS011;7677;41.896;25.004;2023-10-31T08:39:07;13.80;;;8.10;;
15153;SDS011;7677;41.896;25.004;2023-10-31T08:41:36;9.80;;;7.43;;
15153;SDS011;7677;41.896;25.004;2023-10-31T08:44:04;12.47;;;6.37;;
15153;SDS011;7677;41.896;25.004;2023-10-31T08:46:32;14.00;;;6.43;;
15153;SDS011;7677;41.896;25.004;2023-10-31T08:48:59;7.23;;;5.13;;
15153;SDS011;7677;41.896;25.004;2023-10-31T08:51:26;10.23;;;5.40;;
15153;SDS011;7677;41.896;25.004;2023-10-31T08:53:53;7.03;;;4.70;;
15153;SDS011;7677;41.896;25.004;2023-10-31T08:56:20;11.30;;;4.73;;
15153;SDS011;7677;41.896;25.004;2023-10-31T08:58:49;10.40;;;4.83;;
15153;SDS011;7677;41.896;25.004;2023-10-31T09:01:16;7.20;;;4.43;;
15153;SDS011;7677;41.896;25.004;2023-10-31T09:03:42;12.63;;;5.77;;
15153;SDS011;7677;41.896;25.004;2023-10-31T09:06:09;9.47;;;6.33;;
15153;SDS011;7677;41.896;25.004;2023-10-31T09:08:36;9.40;;;4.83;;
15153;SDS011;7677;41.896;25.004;2023-10-31T09:11:04;8.87;;;4.40;;
15153;SDS011;7677;41.896;25.004;2023-10-31T09:13:31;6.83;;;4.67;;
15153;SDS011;7677;41.896;25.004;2023-10-31T09:15:59;7.33;;;4.53;;
15153;SDS011;7677;41.896;25.004;2023-10-31T09:18:27;7.57;;;4.53;;
15153;SDS011;7677;41.896;25.004;2023-10-31T09:20:54;6.10;;;4.37;;
15153;SDS011;7677;41.896;25.004;2023-10-31T09:23:21;11.03;;;4.87;;
15153;SDS011;7677;41.896;25.004;2023-10-31T09:25:48;6.13;;;4.33;;
15153;SDS011;7677;41.896;25.004;2023-10-31T09:28:15;10.90;;;4.23;;
15153;SDS011;7677;41.896;25.004;2023-10-31T09:30:42;7.53;;;4.60;;
15153;SDS011;7677;41.896;25.004;2023-10-31T09:33:10;8.90;;;4.50;;
15153;SDS011;7677;41.896;25.004;2023-10-31T09:35:37;11.57;;;4.80;;
15153;SDS011;7677;41.896;25.004;2023-10-31T09:38:04;8.23;;;4.30;;
15153;SDS011;7677;41.896;25.004;2023-10-31T09:40:31;6.00;;;4.23;;
15153;SDS011;7677;41.896;25.004;2023-10-31T09:42:58;5.50;;;4.27;;
15153;SDS011;7677;41.896;25.004;2023-10-31T09:45:25;8.13;;;4.65;;
15153;SDS011;7677;41.896;25.004;2023-10-31T09:47:52;6.93;;;4.10;;
15153;SDS011;7677;41.896;25.004;2023-10-31T09:50:22;9.13;;;4.10;;
15153;SDS011;7677;41.896;25.004;2023-10-31T09:52:49;5.90;;;3.90;;
15153;SDS011;7677;41.896;25.004;2023-10-31T09:55:17;10.45;;;4.35;;
15153;SDS011;7677;41.896;25.004;2023-10-31T09:57:44;8.20;;;4.05;;
15153;SDS011;7677;41.896;25.004;2023-10-31T10:00:12;7.80;;;3.72;;
15153;SDS011;7677;41.896;25.004;2023-10-31T10:02:39;5.50;;;3.72;;
15153;SDS011;7677;41.896;25.004;2023-10-31T10:05:07;4.63;;;3.47;;
15153;SDS011;7677;41.896;25.004;2023-10-31T10:07:37;7.82;;;4.05;;
15153;SDS011;7677;41.896;25.004;2023-10-31T10:10:09;6.75;;;4.00;;
15153;SDS011;7677;41.896;25.004;2023-10-31T10:12:37;8.27;;;3.60;;
15153;SDS011;7677;41.896;25.004;2023-10-31T10:15:04;6.68;;;3.00;;
15153;SDS011;7677;41.896;25.004;2023-10-31T10:17:32;4.07;;;3.42;;
15153;SDS011;7677;41.896;25.004;2023-10-31T10:20:09;9.55;;;3.72;;
15153;SDS011;7677;41.896;25.004;2023-10-31T10:22:38;7.88;;;3.78;;
15153;SDS011;7677;41.896;25.004;2023-10-31T10:25:07;8.23;;;4.30;;
15153;SDS011;7677;41.896;25.004;2023-10-31T10:27:36;10.10;;;3.97;;
15153;SDS011;7677;41.896;25.004;2023-10-31T10:30:04;10.00;;;3.53;;
15153;SDS011;7677;41.896;25.004;2023-10-31T10:32:33;5.53;;;3.65;;
15153;SDS011;7677;41.896;25.004;2023-10-31T10:35:00;10.95;;;3.30;;
15153;SDS011;7677;41.896;25.004;2023-10-31T10:37:27;3.92;;;2.90;;
15153;SDS011;7677;41.896;25.004;2023-10-31T10:39:57;10.07;;;3.55;;
15153;SDS011;7677;41.896;25.004;2023-10-31T10:42:27;7.82;;;3.63;;
15153;SDS011;7677;41.896;25.004;2023-10-31T10:45:01;5.72;;;3.47;;
15153;SDS011;7677;41.896;25.004;2023-10-31T10:47:29;6.07;;;3.35;;
15153;SDS011;7677;41.896;25.004;2023-10-31T10:49:58;7.22;;;4.15;;
15153;SDS011;7677;41.896;25.004;2023-10-31T10:52:27;5.80;;;3.75;;
15153;SDS011;7677;41.896;25.004;2023-10-31T10:54:58;7.78;;;4.00;;
15153;SDS011;7677;41.896;25.004;2023-10-31T10:57:31;5.00;;;3.47;;
15153;SDS011;7677;41.896;25.004;2023-10-31T11:00:04;5.60;;;3.58;;
15153;SDS011;7677;41.896;25.004;2023-10-31T11:02:33;4.20;;;3.28;;
15153;SDS011;7677;41.896;25.004;2023-10-31T11:05:02;4.00;;;2.90;;
15153;SDS011;7677;41.896;25.004;2023-10-31T11:07:29;7.63;;;3.42;;
15153;SDS011;7677;41.896;25.004;2023-10-31T11:09:56;7.28;;;3.00;;
15153;SDS011;7677;41.896;25.004;2023-10-31T11:12:27;4.03;;;2.97;;
15153;SDS011;7677;41.896;25.004;2023-10-31T11:14:54;5.90;;;3.17;;
15153;SDS011;7677;41.896;25.004;2023-10-31T11:17:23;5.43;;;3.38;;
15153;SDS011;7677;41.896;25.004;2023-10-31T11:19:51;6.18;;;3.30;;
15153;SDS011;7677;41.896;25.004;2023-10-31T11:22:19;8.88;;;3.67;;
15153;SDS011;7677;41.896;25.004;2023-10-31T11:24:47;8.23;;;3.40;;
15153;SDS011;7677;41.896;25.004;2023-10-31T11:27:17;5.28;;;3.72;;
15153;SDS011;7677;41.896;25.004;2023-10-31T11:29:44;7.45;;;3.55;;
15153;SDS011;7677;41.896;25.004;2023-10-31T11:32:11;8.00;;;4.20;;
15153;SDS011;7677;41.896;25.004;2023-10-31T11:34:39;6.65;;;3.72;;
15153;SDS011;7677;41.896;25.004;2023-10-31T11:37:18;4.85;;;3.22;;
15153;SDS011;7677;41.896;25.004;2023-10-31T11:42:46;4.82;;;3.78;;
15153;SDS011;7677;41.896;25.004;2023-10-31T11:45:24;7.43;;;4.35;;
15153;SDS011;7677;41.896;25.004;2023-10-31T11:47:53;9.30;;;4.40;;
15153;SDS011;7677;41.896;25.004;2023-10-31T11:50:21;6.03;;;4.28;;
15153;SDS011;7677;41.896;25.004;2023-10-31T11:52:58;7.40;;;3.50;;
15153;SDS011;7677;41.896;25.004;2023-10-31T11:55:30;8.23;;;3.95;;
15153;SDS011;7677;41.896;25.004;2023-10-31T11:58:00;7.40;;;3.65;;
15153;SDS011;7677;41.896;25.004;2023-10-31T12:00:38;8.32;;;4.07;;
15153;SDS011;7677;41.896;25.004;2023-10-31T12:03:05;6.30;;;3.80;;
15153;SDS011;7677;41.896;25.004;2023-10-31T12:05:32;7.13;;;4.35;;
15153;SDS011;7677;41.896;25.004;2023-10-31T12:07:59;4.65;;;3.38;;
15153;SDS011;7677;41.896;25.004;2023-10-31T12:10:27;7.97;;;4.68;;
15153;SDS011;7677;41.896;25.004;2023-10-31T12:12:56;7.45;;;4.20;;
15153;SDS011;7677;41.896;25.004;2023-10-31T12:15:25;6.82;;;3.90;;
15153;SDS011;7677;41.896;25.004;2023-10-31T12:17:56;5.82;;;3.95;;
15153;SDS011;7677;41.896;25.004;2023-10-31T12:20:24;6.32;;;3.67;;
15153;SDS011;7677;41.896;25.004;2023-10-31T12:23:01;7.60;;;3.75;;
15153;SDS011;7677;41.896;25.004;2023-10-31T12:25:28;6.53;;;3.55;;
15153;SDS011;7677;41.896;25.004;2023-10-31T12:27:58;4.80;;;3.65;;
15153;SDS011;7677;41.896;25.004;2023-10-31T12:30:26;6.45;;;3.60;;
15153;SDS011;7677;41.896;25.004;2023-10-31T12:32:53;7.32;;;4.22;;
15153;SDS011;7677;41.896;25.004;2023-10-31T12:35:22;9.45;;;3.47;;
15153;SDS011;7677;41.896;25.004;2023-10-31T12:37:50;4.68;;;3.40;;
15153;SDS011;7677;41.896;25.004;2023-10-31T12:40:18;7.65;;;3.55;;
15153;SDS011;7677;41.896;25.004;2023-10-31T12:42:46;5.05;;;3.50;;
15153;SDS011;7677;41.896;25.004;2023-10-31T12:45:14;5.80;;;3.83;;
15153;SDS011;7677;41.896;25.004;2023-10-31T12:47:43;6.97;;;3.35;;
15153;SDS011;7677;41.896;25.004;2023-10-31T12:50:12;6.35;;;3.80;;
15153;SDS011;7677;41.896;25.004;2023-10-31T12:52:49;4.72;;;3.80;;
15153;SDS011;7677;41.896;25.004;2023-10-31T12:55:18;7.15;;;3.80;;
15153;SDS011;7677;41.896;25.004;2023-10-31T12:57:46;8.13;;;3.58;;
15153;SDS011;7677;41.896;25.004;2023-10-31T13:00:14;6.40;;;3.67;;
15153;SDS011;7677;41.896;25.004;2023-10-31T13:02:45;5.95;;;3.83;;
15153;SDS011;7677;41.896;25.004;2023-10-31T13:05:12;6.22;;;3.80;;
15153;SDS011;7677;41.896;25.004;2023-10-31T13:07:47;5.70;;;4.18;;
15153;SDS011;7677;41.896;25.004;2023-10-31T13:10:15;5.93;;;3.45;;
15153;SDS011;7677;41.896;25.004;2023-10-31T13:12:43;6.10;;;3.67;;
15153;SDS011;7677;41.896;25.004;2023-10-31T13:15:11;6.75;;;4.20;;
15153;SDS011;7677;41.896;25.004;2023-10-31T13:17:39;6.22;;;3.50;;
15153;SDS011;7677;41.896;25.004;2023-10-31T13:20:10;6.90;;;4.05;;
15153;SDS011;7677;41.896;25.004;2023-10-31T13:22:38;6.88;;;3.80;;
15153;SDS011;7677;41.896;25.004;2023-10-31T13:25:06;6.05;;;3.97;;
15153;SDS011;7677;41.896;25.004;2023-10-31T13:27:36;8.65;;;4.25;;
15153;SDS011;7677;41.896;25.004;2023-10-31T13:30:04;5.47;;;3.80;;
15153;SDS011;7677;41.896;25.004;2023-10-31T13:32:31;5.05;;;4.43;;
15153;SDS011;7677;41.896;25.004;2023-10-31T13:34:58;7.63;;;4.40;;
15153;SDS011;7677;41.896;25.004;2023-10-31T13:37:27;8.60;;;4.70;;
15153;SDS011;7677;41.896;25.004;2023-10-31T13:39:54;5.97;;;3.90;;
15153;SDS011;7677;41.896;25.004;2023-10-31T13:42:21;10.70;;;6.22;;
15153;SDS011;7677;41.896;25.004;2023-10-31T13:44:48;9.27;;;4.90;;
15153;SDS011;7677;41.896;25.004;2023-10-31T13:47:15;6.25;;;4.05;;
15153;SDS011;7677;41.896;25.004;2023-10-31T13:49:42;6.82;;;4.15;;
15153;SDS011;7677;41.896;25.004;2023-10-31T13:52:10;6.88;;;4.00;;
15153;SDS011;7677;41.896;25.004;2023-10-31T13:54:38;5.38;;;3.85;;
15153;SDS011;7677;41.896;25.004;2023-10-31T13:57:05;7.20;;;3.90;;
15153;SDS011;7677;41.896;25.004;2023-10-31T13:59:32;6.30;;;4.30;;
15153;SDS011;7677;41.896;25.004;2023-10-31T14:01:59;6.43;;;3.70;;
15153;SDS011;7677;41.896;25.004;2023-10-31T14:04:26;7.22;;;4.60;;
15153;SDS011;7677;41.896;25.004;2023-10-31T14:06:54;6.97;;;3.58;;
15153;SDS011;7677;41.896;25.004;2023-10-31T14:09:21;7.80;;;4.97;;
15153;SDS011;7677;41.896;25.004;2023-10-31T14:11:49;5.93;;;4.10;;
15153;SDS011;7677;41.896;25.004;2023-10-31T14:14:16;6.93;;;4.28;;
15153;SDS011;7677;41.896;25.004;2023-10-31T14:16:44;5.03;;;4.22;;
15153;SDS011;7677;41.896;25.004;2023-10-31T14:19:12;6.13;;;3.90;;
15153;SDS011;7677;41.896;25.004;2023-10-31T14:21:41;6.20;;;3.88;;
15153;SDS011;7677;41.896;25.004;2023-10-31T14:24:09;7.97;;;4.05;;
15153;SDS011;7677;41.896;25.004;2023-10-31T14:26:36;6.22;;;4.75;;
15153;SDS011;7677;41.896;25.004;2023-10-31T14:29:05;7.65;;;3.95;;
15153;SDS011;7677;41.896;25.004;2023-10-31T14:31:37;5.00;;;4.13;;
15153;SDS011;7677;41.896;25.004;2023-10-31T14:34:05;5.72;;;3.50;;
15153;SDS011;7677;41.896;25.004;2023-10-31T14:36:32;8.15;;;3.45;;
15153;SDS011;7677;41.896;25.004;2023-10-31T14:38:59;4.97;;;3.33;;
15153;SDS011;7677;41.896;25.004;2023-10-31T14:41:26;5.15;;;3.50;;
15153;SDS011;7677;41.896;25.004;2023-10-31T14:43:58;5.80;;;3.75;;
15153;SDS011;7677;41.896;25.004;2023-10-31T14:46:26;5.22;;;3.53;;
15153;SDS011;7677;41.896;25.004;2023-10-31T14:48:53;5.88;;;3.63;;
15153;SDS011;7677;41.896;25.004;2023-10-31T14:51:20;7.00;;;3.70;;